Time;durP1;ratioP1;P1;durP2;ratioP2;P2;SDS_P1;SDS_P2;PMS_P1;PMS_P2;Temp;Humidity;BMP_temperature;BMP_pressure;BME280_temperature;BME280_humidity;BME280_pressure;Samples;Min_cycle;Max_cycle;Signal;HPM_P1;HPM_P2
2023/03/27 00:00:19;;;;;;;1.43;0.80;;;5.10;99.90;;;;;;5019541;28;20025;-88
2023/03/27 00:02:48;;;;;;;2.43;0.90;;;5.10;99.90;;;;;;5020085;28;20712;-88
2023/03/27 00:05:19;;;;;;;1.00;0.77;;;5.10;99.90;;;;;;5018125;28;20179;-88
2023/03/27 00:07:50;;;;;;;0.80;0.70;;;5.20;99.90;;;;;;4998006;28;20118;-88
2023/03/27 00:10:16;;;;;;;2.87;0.80;;;5.10;99.90;;;;;;5019592;28;20088;-88
2023/03/27 00:12:43;;;;;;;1.93;0.87;;;5.10;99.90;;;;;;5019493;28;20033;-87
2023/03/27 00:15:20;;;;;;;4.90;0.90;;;5.10;99.90;;;;;;4997127;28;21423;-88
2023/03/27 00:17:47;;;;;;;1.93;1.10;;;5.10;99.90;;;;;;5019685;28;20034;-88
2023/03/27 00:20:15;;;;;;;3.60;1.20;;;5.00;99.90;;;;;;5018168;28;20042;-88
2023/03/27 00:22:41;;;;;;;1.10;0.70;;;5.00;99.90;;;;;;5018204;28;20076;-88
2023/03/27 00:25:09;;;;;;;3.23;0.90;;;5.00;99.90;;;;;;5019429;28;20053;-88
2023/03/27 00:27:34;;;;;;;3.27;0.90;;;5.00;99.90;;;;;;4998367;28;20029;-87
2023/03/27 00:30:00;;;;;;;3.57;0.90;;;4.90;99.90;;;;;;5018611;28;20036;-87
2023/03/27 00:32:26;;;;;;;2.00;1.00;;;4.90;99.90;;;;;;5009194;28;20088;-88
2023/03/27 00:34:51;;;;;;;1.57;0.90;;;5.00;99.90;;;;;;5015624;28;20049;-88
2023/03/27 00:37:17;;;;;;;2.70;0.80;;;4.90;99.90;;;;;;5018574;28;20369;-87
2023/03/27 00:39:42;;;;;;;1.80;0.90;;;5.00;99.90;;;;;;5016520;28;20500;-87
2023/03/27 00:42:13;;;;;;;3.60;1.47;;;5.00;99.90;;;;;;5017681;28;20033;-88
2023/03/27 00:44:38;;;;;;;2.53;0.70;;;5.00;99.90;;;;;;5019853;28;20123;-87
2023/03/27 00:47:06;;;;;;;1.37;0.93;;;5.00;99.90;;;;;;5019474;28;20039;-88
2023/03/27 00:49:35;;;;;;;2.30;0.90;;;5.00;99.90;;;;;;5018889;28;20048;-88
2023/03/27 00:52:03;;;;;;;1.83;0.83;;;5.00;99.90;;;;;;5018313;28;20039;-88
2023/03/27 00:54:33;;;;;;;3.30;0.83;;;5.00;99.90;;;;;;5019237;28;20048;-87
2023/03/27 00:57:03;;;;;;;2.17;0.80;;;5.00;99.90;;;;;;5018513;28;20044;-88
2023/03/27 00:59:33;;;;;;;1.97;1.03;;;5.00;99.90;;;;;;5017668;28;21535;-89
2023/03/27 01:02:01;;;;;;;1.77;1.03;;;5.00;99.90;;;;;;5017815;28;20520;-88
2023/03/27 01:04:27;;;;;;;1.43;0.70;;;5.00;99.90;;;;;;4997267;28;20052;-87
2023/03/27 01:06:54;;;;;;;2.50;0.80;;;5.10;99.90;;;;;;4996547;28;20021;-88
2023/03/27 01:09:20;;;;;;;3.07;0.80;;;5.10;99.90;;;;;;5017286;28;20040;-87
2023/03/27 01:12:20;;;;;;;2.73;1.00;;;5.10;99.90;;;;;;5018934;28;20030;-88
2023/03/27 01:15:03;;;;;;;1.50;0.80;;;5.10;99.90;;;;;;5018238;28;20069;-87
2023/03/27 01:17:55;;;;;;;2.77;1.00;;;5.10;99.90;;;;;;5017289;28;20018;-87
2023/03/27 01:20:29;;;;;;;2.77;0.83;;;5.10;99.90;;;;;;5017496;28;20034;-87
2023/03/27 01:23:07;;;;;;;3.43;1.10;;;5.20;99.90;;;;;;5017265;28;21427;-87
2023/03/27 01:26:03;;;;;;;1.57;0.90;;;5.20;99.90;;;;;;5016800;28;20028;-87
2023/03/27 01:29:10;;;;;;;1.30;0.80;;;5.10;99.90;;;;;;4994905;28;20373;-88
2023/03/27 01:31:53;;;;;;;1.73;1.10;;;5.20;99.90;;;;;;4918842;29;20036;-87
2023/03/27 01:34:52;;;;;;;1.90;1.10;;;5.10;99.90;;;;;;5006093;28;20078;-86
2023/03/27 01:37:23;;;;;;;1.10;1.00;;;5.10;99.90;;;;;;5016410;28;20045;-86
2023/03/27 01:40:08;;;;;;;2.07;1.37;;;5.00;99.90;;;;;;5017090;28;20032;-87
2023/03/27 01:42:53;;;;;;;1.27;0.83;;;5.10;99.90;;;;;;4993971;28;20022;-87
2023/03/27 01:45:29;;;;;;;1.73;1.05;;;5.10;99.90;;;;;;4995904;28;20056;-87
2023/03/27 01:48:13;;;;;;;2.33;1.00;;;5.10;99.90;;;;;;4996316;28;20156;-87
2023/03/27 01:51:08;;;;;;;2.73;0.83;;;5.10;99.90;;;;;;5019043;28;20087;-87
2023/03/27 01:53:39;;;;;;;2.30;0.97;;;5.10;99.90;;;;;;5005189;28;20075;-87
2023/03/27 01:56:07;;;;;;;2.03;0.90;;;5.10;99.90;;;;;;5017107;28;20041;-87
2023/03/27 01:58:40;;;;;;;0.97;0.80;;;5.20;99.90;;;;;;5015498;28;20046;-87
2023/03/27 02:01:08;;;;;;;2.23;0.90;;;5.10;99.90;;;;;;5016698;28;20121;-88
2023/03/27 02:03:44;;;;;;;2.30;1.00;;;5.10;99.90;;;;;;5017353;28;21373;-87
2023/03/27 02:06:18;;;;;;;;;;;5.00;99.90;;;;;;5010612;28;20789;-87
2023/03/27 02:08:58;;;;;;;1.70;1.30;;;5.00;99.90;;;;;;5016147;28;19924;-88
2023/03/27 02:11:28;;;;;;;1.53;0.90;;;5.00;99.90;;;;;;5016291;28;20393;-87
2023/03/27 02:13:59;;;;;;;1.10;1.00;;;5.10;99.90;;;;;;5016944;28;20384;-87
2023/03/27 02:16:32;;;;;;;1.17;1.00;;;5.10;99.90;;;;;;5017006;28;20512;-87
2023/03/27 02:19:07;;;;;;;2.77;0.97;;;5.00;99.90;;;;;;4995241;28;20429;-88
2023/03/27 02:21:33;;;;;;;1.38;1.00;;;5.00;99.90;;;;;;5018016;28;20057;-87
2023/03/27 02:24:01;;;;;;;1.00;0.90;;;5.00;99.90;;;;;;5016775;28;20037;-87
2023/03/27 02:26:31;;;;;;;2.23;1.10;;;5.00;99.90;;;;;;5017375;28;20036;-88
2023/03/27 02:29:39;;;;;;;1.90;1.00;;;5.00;99.90;;;;;;5016166;28;20033;-87
2023/03/27 02:32:31;;;;;;;1.50;1.07;;;4.90;99.90;;;;;;5004089;28;20578;-87
2023/03/27 02:35:19;;;;;;;3.10;1.20;;;4.90;99.90;;;;;;5016643;28;20082;-87
2023/03/27 02:37:57;;;;;;;1.17;1.00;;;4.80;99.90;;;;;;5015937;28;20026;-87
2023/03/27 02:40:32;;;;;;;1.40;1.20;;;4.90;99.90;;;;;;5017263;28;20493;-88
2023/03/27 02:43:11;;;;;;;1.83;1.15;;;4.90;99.90;;;;;;5016452;28;21377;-87
2023/03/27 02:45:48;;;;;;;2.20;1.13;;;4.80;99.90;;;;;;5017164;28;20040;-87
2023/03/27 02:48:18;;;;;;;1.53;1.10;;;4.80;99.90;;;;;;5014367;28;20045;-87
2023/03/27 02:50:53;;;;;;;1.20;1.10;;;4.70;99.90;;;;;;5015581;28;20038;-87
2023/03/27 02:53:21;;;;;;;;;;;4.70;99.90;;;;;;5017360;28;20022;-87
2023/03/27 02:55:59;;;;;;;6.30;1.30;;;4.60;99.90;;;;;;5018590;28;19925;-87
2023/03/27 02:58:34;;;;;;;1.57;1.03;;;4.60;99.90;;;;;;5019181;28;20471;-87
2023/03/27 03:01:01;;;;;;;1.13;1.00;;;4.60;99.90;;;;;;5020420;28;20025;-87
2023/03/27 03:03:54;;;;;;;1.30;1.20;;;4.70;99.90;;;;;;5021161;28;20030;-87
2023/03/27 03:06:28;;;;;;;3.57;1.30;;;4.60;99.90;;;;;;5010188;28;20048;-87
2023/03/27 03:09:04;;;;;;;1.33;1.20;;;4.60;99.90;;;;;;5019307;28;20124;-87
2023/03/27 03:11:30;;;;;;;3.00;1.47;;;4.70;99.90;;;;;;5019627;28;20033;-87
2023/03/27 03:13:56;;;;;;;2.70;1.40;;;4.70;99.90;;;;;;5019801;28;20112;-87
2023/03/27 03:16:22;;;;;;;1.20;1.10;;;4.70;99.90;;;;;;5020649;28;20041;-87
2023/03/27 03:18:48;;;;;;;1.80;1.47;;;4.60;99.90;;;;;;5019967;28;20045;-87
2023/03/27 03:21:14;;;;;;;2.67;1.30;;;4.60;99.90;;;;;;5020731;28;20034;-87
2023/03/27 03:23:40;;;;;;;1.83;1.30;;;4.60;99.90;;;;;;5019699;28;20025;-88
2023/03/27 03:26:06;;;;;;;2.87;1.70;;;4.60;99.90;;;;;;5019287;28;20404;-87
2023/03/27 03:28:33;;;;;;;2.30;1.40;;;4.60;99.90;;;;;;5019426;28;20425;-87
2023/03/27 03:31:01;;;;;;;2.73;1.80;;;4.60;99.90;;;;;;5019891;28;20156;-87
2023/03/27 03:33:28;;;;;;;2.20;1.43;;;4.60;99.90;;;;;;5019311;28;20079;-87
2023/03/27 03:35:59;;;;;;;3.93;1.50;;;4.50;99.90;;;;;;5020248;28;20653;-87
2023/03/27 03:38:26;;;;;;;2.33;1.73;;;4.50;99.90;;;;;;5020513;28;20033;-88
2023/03/27 03:40:56;;;;;;;1.90;1.50;;;4.50;99.90;;;;;;5021254;28;20025;-87
2023/03/27 03:43:25;;;;;;;1.93;1.60;;;4.40;99.90;;;;;;5019770;28;20133;-87
2023/03/27 03:45:51;;;;;;;1.93;1.70;;;4.50;99.90;;;;;;5021227;28;20447;-87
2023/03/27 03:48:19;;;;;;;1.90;1.60;;;4.40;99.90;;;;;;5018802;28;20042;-88
2023/03/27 03:50:46;;;;;;;2.50;1.53;;;4.40;99.90;;;;;;5020453;28;21455;-87
2023/03/27 03:53:16;;;;;;;3.30;1.70;;;4.30;99.90;;;;;;5019598;28;20033;-87
2023/03/27 03:55:42;;;;;;;2.03;1.60;;;4.40;99.90;;;;;;5020199;28;20148;-88
2023/03/27 03:58:09;;;;;;;4.50;1.90;;;4.30;99.90;;;;;;4997875;28;20641;-89
2023/03/27 04:00:38;;;;;;;2.07;1.77;;;4.30;99.90;;;;;;5020024;28;20064;-88
2023/03/27 04:03:07;;;;;;;3.20;2.10;;;4.30;99.90;;;;;;5017892;28;20030;-88
2023/03/27 04:05:36;;;;;;;3.60;2.17;;;4.30;99.90;;;;;;5020668;28;20051;-88
2023/03/27 04:08:05;;;;;;;2.30;1.63;;;4.20;99.90;;;;;;5018393;28;20144;-88
2023/03/27 04:10:31;;;;;;;2.17;1.83;;;4.30;99.90;;;;;;5018662;28;20447;-88
2023/03/27 04:12:58;;;;;;;3.43;2.37;;;4.30;99.90;;;;;;5018281;28;20033;-78
2023/03/27 04:15:24;;;;;;;2.70;2.00;;;4.30;99.90;;;;;;5019156;28;20061;-87
2023/03/27 04:17:49;;;;;;;2.37;1.80;;;4.40;99.90;;;;;;5017177;28;20132;-87
2023/03/27 04:20:16;;;;;;;2.20;2.00;;;4.40;99.90;;;;;;5017862;28;20033;-87
2023/03/27 04:22:47;;;;;;;2.57;2.17;;;4.40;99.90;;;;;;5016035;28;20044;-87
2023/03/27 04:25:16;;;;;;;3.17;2.37;;;4.40;99.90;;;;;;5015130;28;20441;-87
2023/03/27 04:27:42;;;;;;;3.57;2.70;;;4.40;99.90;;;;;;5016951;28;20086;-87
2023/03/27 04:30:09;;;;;;;3.23;2.20;;;4.40;99.90;;;;;;5017345;28;20034;-86
2023/03/27 04:32:35;;;;;;;2.27;1.93;;;4.40;99.90;;;;;;5016053;28;20038;-87
2023/03/27 04:35:02;;;;;;;1.67;1.37;;;4.40;99.90;;;;;;5017933;28;20416;-88
2023/03/27 04:37:29;;;;;;;2.27;1.10;;;4.40;99.90;;;;;;4997122;28;20164;-87
2023/03/27 04:39:55;;;;;;;1.40;1.30;;;4.40;99.90;;;;;;5015343;28;20103;-87
2023/03/27 04:42:23;;;;;;;1.53;1.13;;;4.30;99.90;;;;;;5014544;28;20465;-87
2023/03/27 04:44:51;;;;;;;1.10;1.00;;;4.30;99.90;;;;;;5016363;28;20040;-87
2023/03/27 04:47:17;;;;;;;1.20;1.10;;;4.30;99.90;;;;;;5017063;28;20091;-88
2023/03/27 04:49:45;;;;;;;1.40;1.10;;;4.20;99.90;;;;;;5016105;28;20041;-87
2023/03/27 04:52:13;;;;;;;1.17;1.07;;;4.20;99.90;;;;;;5015563;28;20512;-88
2023/03/27 04:54:39;;;;;;;0.90;0.90;;;4.20;99.90;;;;;;5016809;28;20033;-87
2023/03/27 04:57:06;;;;;;;0.90;0.90;;;4.20;99.90;;;;;;5017407;28;20037;-87
2023/03/27 04:59:32;;;;;;;1.47;1.20;;;4.20;99.90;;;;;;5017258;28;20061;-88
2023/03/27 05:01:58;;;;;;;3.17;1.00;;;4.10;99.90;;;;;;5018207;28;20040;-88
2023/03/27 05:04:27;;;;;;;1.63;1.17;;;4.10;99.90;;;;;;5020482;28;20114;-87
2023/03/27 05:06:54;;;;;;;1.83;1.10;;;4.10;99.90;;;;;;4995625;28;20547;-88
2023/03/27 05:09:20;;;;;;;1.30;1.20;;;4.00;99.90;;;;;;5016123;28;20086;-88
2023/03/27 05:11:48;;;;;;;1.57;1.33;;;4.00;99.90;;;;;;5018763;28;20037;-86
2023/03/27 05:14:16;;;;;;;2.03;1.40;;;4.00;99.90;;;;;;5016319;28;20045;-85
2023/03/27 05:16:42;;;;;;;2.17;1.30;;;4.00;99.90;;;;;;5016912;28;20068;-86
2023/03/27 05:19:07;;;;;;;3.03;1.77;;;4.00;99.90;;;;;;5018868;28;20171;-86
2023/03/27 05:21:33;;;;;;;4.07;1.47;;;4.00;99.90;;;;;;5016305;28;20038;-86
2023/03/27 05:23:58;;;;;;;1.57;1.20;;;3.90;99.90;;;;;;5016268;28;20030;-85
2023/03/27 05:26:24;;;;;;;1.60;1.30;;;3.90;99.90;;;;;;5018078;28;20033;-86
2023/03/27 05:28:53;;;;;;;2.00;1.40;;;3.80;99.90;;;;;;4995675;28;20572;-87
2023/03/27 05:31:19;;;;;;;1.37;1.20;;;3.80;99.90;;;;;;5016731;28;20080;-86
2023/03/27 05:33:44;;;;;;;1.90;1.43;;;3.70;99.90;;;;;;5015674;28;20025;-85
2023/03/27 05:36:14;;;;;;;1.83;1.63;;;3.70;99.90;;;;;;5013848;28;20037;-87
2023/03/27 05:38:41;;;;;;;2.10;1.40;;;3.60;99.90;;;;;;5017280;28;20091;-87
2023/03/27 05:41:08;;;;;;;1.73;1.30;;;3.60;99.90;;;;;;5017450;28;20056;-87
2023/03/27 05:43:34;;;;;;;3.33;1.60;;;3.60;99.90;;;;;;5016557;28;20552;-87
2023/03/27 05:46:00;;;;;;;2.03;1.60;;;3.60;99.90;;;;;;5016683;28;20037;-87
2023/03/27 05:48:26;;;;;;;2.57;1.53;;;3.60;99.90;;;;;;5016158;28;20153;-86
2023/03/27 05:50:52;;;;;;;2.20;1.60;;;3.50;99.90;;;;;;5018446;28;20017;-88
2023/03/27 05:53:18;;;;;;;2.37;1.70;;;3.50;99.90;;;;;;5018528;28;20416;-88
2023/03/27 05:55:44;;;;;;;2.77;1.87;;;3.40;99.90;;;;;;5017930;28;22087;-87
2023/03/27 05:58:12;;;;;;;2.67;1.70;;;3.40;99.90;;;;;;5014080;28;20112;-88
2023/03/27 06:00:40;;;;;;;2.33;1.90;;;3.40;99.90;;;;;;5016234;28;20040;-87
2023/03/27 06:03:06;;;;;;;2.10;1.70;;;3.40;99.90;;;;;;5017212;28;20068;-87
2023/03/27 06:05:32;;;;;;;2.37;1.80;;;3.40;99.90;;;;;;5017343;28;20116;-87
2023/03/27 06:07:58;;;;;;;3.30;1.80;;;3.40;99.90;;;;;;5017891;28;20154;-87
2023/03/27 06:10:26;;;;;;;2.33;1.63;;;3.30;99.90;;;;;;5016823;28;20132;-86
2023/03/27 06:13:00;;;;;;;2.20;1.67;;;3.30;99.90;;;;;;5015306;28;20116;-87
2023/03/27 06:15:26;;;;;;;2.63;1.60;;;3.20;99.90;;;;;;5018523;28;20109;-87
2023/03/27 06:17:51;;;;;;;1.83;1.50;;;3.10;99.90;;;;;;5015633;28;20037;-87
2023/03/27 06:20:18;;;;;;;3.90;1.53;;;3.00;99.90;;;;;;5017792;28;20033;-87
2023/03/27 06:22:49;;;;;;;2.83;1.90;;;3.00;99.90;;;;;;5015874;28;20033;-87
2023/03/27 06:25:16;;;;;;;2.10;1.50;;;3.00;99.90;;;;;;5015643;28;20026;-87
2023/03/27 06:27:44;;;;;;;2.50;1.43;;;3.00;99.90;;;;;;5017004;28;20484;-90
2023/03/27 06:30:11;;;;;;;2.37;1.67;;;3.00;99.90;;;;;;5019454;28;20112;-90
2023/03/27 06:32:46;;;;;;;1.87;1.40;;;3.00;99.90;;;;;;5019766;28;20404;-89
2023/03/27 06:35:13;;;;;;;2.00;1.50;;;3.00;99.90;;;;;;5020188;28;20080;-88
2023/03/27 06:37:44;;;;;;;2.23;1.30;;;2.90;99.90;;;;;;5019561;28;20033;-90
2023/03/27 06:40:19;;;;;;;2.30;1.50;;;2.90;99.90;;;;;;5019770;28;20021;-90
2023/03/27 06:42:50;;;;;;;2.50;1.30;;;2.80;99.90;;;;;;5018718;28;20048;-89
2023/03/27 06:45:15;;;;;;;1.70;1.20;;;2.80;99.90;;;;;;5022205;28;21388;-89
2023/03/27 06:47:53;;;;;;;2.67;1.57;;;2.80;99.90;;;;;;5018838;28;20212;-90
2023/03/27 06:50:19;;;;;;;1.93;1.50;;;2.80;99.90;;;;;;5019913;28;20095;-89
2023/03/27 06:52:47;;;;;;;1.87;1.20;;;2.70;99.90;;;;;;5021824;28;20030;-88
2023/03/27 06:55:14;;;;;;;1.53;1.30;;;2.80;99.90;;;;;;5011652;28;20045;-88
2023/03/27 06:57:44;;;;;;;2.03;1.40;;;2.80;99.90;;;;;;5019723;28;20116;-88
2023/03/27 07:00:17;;;;;;;1.60;1.23;;;2.80;99.90;;;;;;5020696;28;20026;-87
2023/03/27 07:02:46;;;;;;;2.30;1.50;;;2.80;99.90;;;;;;5021030;28;20029;-89
2023/03/27 07:05:13;;;;;;;1.47;1.23;;;2.70;99.90;;;;;;5020269;28;20048;-90
2023/03/27 07:07:40;;;;;;;1.20;1.10;;;2.70;99.90;;;;;;5012516;28;20467;-89
2023/03/27 07:10:07;;;;;;;3.17;1.43;;;2.70;99.90;;;;;;5010020;28;20053;-89
2023/03/27 07:12:32;;;;;;;8.67;1.60;;;2.60;99.90;;;;;;5011742;28;20116;-90
2023/03/27 07:15:01;;;;;;;1.57;1.27;;;2.70;99.90;;;;;;5011591;28;20034;-90
2023/03/27 07:17:26;;;;;;;1.13;1.03;;;2.60;99.90;;;;;;4991708;28;20026;-90
2023/03/27 07:19:52;;;;;;;3.33;2.33;;;2.70;99.90;;;;;;5008804;28;20577;-89
2023/03/27 07:22:18;;;;;;;1.20;1.10;;;2.70;99.90;;;;;;5011694;28;20029;-89
2023/03/27 07:24:44;;;;;;;1.10;0.90;;;2.70;99.90;;;;;;5013176;28;20167;-88
2023/03/27 07:27:09;;;;;;;1.20;1.00;;;2.70;99.90;;;;;;5011355;28;20036;-90
2023/03/27 07:29:36;;;;;;;1.33;1.20;;;2.70;99.90;;;;;;5010048;28;20034;-90
2023/03/27 07:32:03;;;;;;;2.03;1.40;;;2.60;99.90;;;;;;5009953;28;20025;-90
2023/03/27 07:34:28;;;;;;;1.80;1.50;;;2.60;99.90;;;;;;5007815;28;20128;-89
2023/03/27 07:36:56;;;;;;;2.17;1.60;;;2.70;99.90;;;;;;5011931;28;21020;-90
2023/03/27 07:39:22;;;;;;;2.27;1.90;;;2.60;99.90;;;;;;5010384;28;20086;-90
2023/03/27 07:41:47;;;;;;;2.80;1.80;;;2.60;99.90;;;;;;5010787;28;20041;-91
2023/03/27 07:44:13;;;;;;;2.73;2.13;;;2.60;99.90;;;;;;5009090;28;20026;-89
2023/03/27 07:46:38;;;;;;;5.13;3.00;;;2.50;99.90;;;;;;5010198;28;21138;-91
2023/03/27 07:49:04;;;;;;;5.70;3.10;;;2.50;99.90;;;;;;5012682;28;20488;-90
2023/03/27 07:51:30;;;;;;;6.97;3.20;;;2.40;99.90;;;;;;4990531;28;21019;-90
2023/03/27 07:54:02;;;;;;;5.47;3.57;;;2.40;99.90;;;;;;5007274;28;20080;-89
2023/03/27 07:56:28;;;;;;;7.50;4.43;;;2.40;99.90;;;;;;5008464;28;20045;-88
2023/03/27 07:58:54;;;;;;;8.30;5.50;;;2.40;99.90;;;;;;4993264;28;20049;-89
2023/03/27 08:01:20;;;;;;;8.57;5.53;;;2.40;99.90;;;;;;5013451;28;20048;-89
2023/03/27 08:03:47;;;;;;;15.07;6.80;;;2.40;99.90;;;;;;5010849;28;20025;-90
2023/03/27 08:06:13;;;;;;;14.33;6.80;;;2.40;99.90;;;;;;5010737;28;20045;-89
2023/03/27 08:08:38;;;;;;;11.47;6.13;;;2.40;99.90;;;;;;5010032;28;20041;-90
2023/03/27 08:11:04;;;;;;;14.47;6.27;;;2.40;99.90;;;;;;5009001;28;20504;-88
2023/03/27 08:13:30;;;;;;;13.97;7.30;;;2.50;99.90;;;;;;4991011;28;20030;-89
2023/03/27 08:16:04;;;;;;;16.40;7.67;;;2.50;99.90;;;;;;5010047;28;20157;-89
2023/03/27 08:18:30;;;;;;;12.07;6.83;;;2.60;99.90;;;;;;5009519;28;20033;-88
2023/03/27 08:20:58;;;;;;;13.00;6.60;;;2.60;99.90;;;;;;5008236;28;20038;-87
2023/03/27 08:23:27;;;;;;;10.90;6.33;;;2.60;99.90;;;;;;5007842;28;20707;-90
2023/03/27 08:25:53;;;;;;;11.83;6.93;;;2.70;99.90;;;;;;4992283;28;20033;-88
2023/03/27 08:28:19;;;;;;;10.17;6.40;;;2.60;99.90;;;;;;5007528;28;20037;-88
2023/03/27 08:30:47;;;;;;;15.07;7.57;;;2.60;99.90;;;;;;5011847;28;20044;-88
2023/03/27 08:33:13;;;;;;;18.43;7.73;;;2.60;99.90;;;;;;5007342;28;20072;-88
2023/03/27 08:35:39;;;;;;;19.83;8.50;;;2.60;99.90;;;;;;5011387;28;20092;-88
2023/03/27 08:38:05;;;;;;;16.10;7.93;;;2.60;99.90;;;;;;5010874;28;20913;-88
2023/03/27 08:40:32;;;;;;;16.70;7.63;;;2.60;99.90;;;;;;5018010;28;20072;-89
2023/03/27 08:43:04;;;;;;;17.10;8.07;;;2.60;99.90;;;;;;5019243;28;20374;-90
2023/03/27 08:45:47;;;;;;;24.90;9.80;;;2.60;99.90;;;;;;5019896;28;20042;-88
2023/03/27 08:48:20;;;;;;;22.33;9.47;;;2.60;99.90;;;;;;5020628;28;20179;-89
2023/03/27 08:50:52;;;;;;;21.40;8.10;;;2.70;99.90;;;;;;5020136;28;20088;-88
2023/03/27 08:53:42;;;;;;;19.20;8.07;;;2.60;99.90;;;;;;5017925;28;20029;-88
2023/03/27 08:56:16;;;;;;;20.83;8.43;;;2.70;99.90;;;;;;5022957;28;20139;-90
2023/03/27 08:58:43;;;;;;;27.10;10.87;;;2.70;99.90;;;;;;5020232;28;20053;-89
2023/03/27 09:01:25;;;;;;;19.70;8.50;;;2.80;99.90;;;;;;5022053;28;20387;-89
2023/03/27 09:04:24;;;;;;;19.07;6.63;;;2.90;99.90;;;;;;5020862;28;20021;-89
2023/03/27 09:06:59;;;;;;;18.87;7.50;;;2.90;99.90;;;;;;5021519;28;20075;-89
2023/03/27 09:09:37;;;;;;;19.13;8.82;;;3.00;99.90;;;;;;5020368;28;20025;-90
2023/03/27 09:12:32;;;;;;;16.00;5.73;;;3.00;99.90;;;;;;5019966;28;20696;-90
2023/03/27 09:15:10;;;;;;;21.13;8.03;;;3.00;99.90;;;;;;5020041;28;20044;-89
2023/03/27 09:17:42;;;;;;;18.73;6.43;;;3.00;99.90;;;;;;5019421;28;20037;-90
2023/03/27 09:20:31;;;;;;;14.97;6.13;;;3.00;99.90;;;;;;5017642;28;20049;-88
2023/03/27 09:23:04;;;;;;;17.73;7.20;;;3.10;99.90;;;;;;5017501;28;21358;-89
2023/03/27 09:25:39;;;;;;;17.50;6.80;;;3.00;99.90;;;;;;5015107;28;20037;-90
2023/03/27 09:28:21;;;;;;;14.32;5.80;;;3.10;99.90;;;;;;5003865;28;20159;-90
2023/03/27 09:30:47;;;;;;;19.30;6.60;;;3.10;99.90;;;;;;5009736;28;20056;-89
2023/03/27 09:33:13;;;;;;;19.00;6.00;;;3.20;99.90;;;;;;5008386;28;20147;-89
2023/03/27 09:35:39;;;;;;;16.47;6.20;;;3.20;99.90;;;;;;5011506;28;20152;-89
2023/03/27 09:38:40;;;;;;;14.27;6.20;;;3.40;99.90;;;;;;5007982;28;20032;-90
2023/03/27 09:41:17;;;;;;;11.03;4.90;;;3.60;99.90;;;;;;5009047;28;20131;-89
2023/03/27 09:44:11;;;;;;;14.83;4.60;;;3.90;99.90;;;;;;5010343;28;20033;-90
2023/03/27 09:46:41;;;;;;;11.37;4.63;;;4.00;99.90;;;;;;5010902;28;20862;-91
2023/03/27 09:49:18;;;;;;;12.77;5.00;;;4.10;99.90;;;;;;5013391;28;20105;-90
2023/03/27 09:51:49;;;;;;;9.40;4.03;;;4.20;99.90;;;;;;5008317;28;20056;-88
2023/03/27 09:54:20;;;;;;;11.87;4.63;;;4.50;99.90;;;;;;5013676;28;20768;-91
2023/03/27 09:56:53;;;;;;;12.20;4.83;;;4.60;99.90;;;;;;5009556;28;20049;-89
2023/03/27 09:59:23;;;;;;;15.30;4.87;;;4.70;99.90;;;;;;4994575;28;20401;-88
2023/03/27 10:01:51;;;;;;;11.87;4.43;;;4.70;99.90;;;;;;4988005;28;20046;-90
2023/03/27 10:04:20;;;;;;;12.00;3.57;;;4.80;99.90;;;;;;4994396;28;20026;-88
2023/03/27 10:06:55;;;;;;;12.23;5.10;;;4.80;99.90;;;;;;4971232;28;20152;-89
2023/03/27 10:09:29;;;;;;;14.33;4.50;;;4.80;99.90;;;;;;4990465;28;20034;-88
2023/03/27 10:12:09;;;;;;;11.45;3.85;;;4.80;99.90;;;;;;4973245;28;20385;-92
2023/03/27 10:14:41;;;;;;;16.40;4.30;;;4.90;99.90;;;;;;4993129;28;20045;-89
2023/03/27 10:17:20;;;;;;;13.80;3.53;;;4.80;99.90;;;;;;4993093;28;20037;-89
2023/03/27 10:19:47;;;;;;;9.43;3.90;;;4.80;99.90;;;;;;4990131;28;20099;-89
2023/03/27 10:22:45;;;;;;;9.23;3.90;;;4.70;99.90;;;;;;4992245;28;20038;-88
2023/03/27 10:25:21;;;;;;;14.57;4.33;;;4.80;99.90;;;;;;4974253;28;20177;-88
2023/03/27 10:27:47;;;;;;;9.73;2.90;;;4.80;99.90;;;;;;4992008;28;20057;-88
2023/03/27 10:30:31;;;;;;;15.17;3.90;;;4.80;99.90;;;;;;4989809;28;21827;-87
2023/03/27 10:32:57;;;;;;;12.90;3.50;;;4.70;99.90;;;;;;4991578;28;20042;-87
2023/03/27 10:35:27;;;;;;;9.23;3.17;;;4.70;99.90;;;;;;4973323;28;21031;-88
2023/03/27 10:37:54;;;;;;;12.07;3.60;;;4.80;99.90;;;;;;4990556;28;20042;-87
2023/03/27 10:40:24;;;;;;;10.67;3.10;;;4.70;99.90;;;;;;4989803;28;20088;-91
2023/03/27 10:42:53;;;;;;;11.23;3.70;;;4.70;99.90;;;;;;4976003;28;20029;-90
2023/03/27 10:45:21;;;;;;;12.00;3.30;;;4.70;99.90;;;;;;4991625;28;20034;-86
2023/03/27 10:47:57;;;;;;;11.67;3.17;;;4.70;99.90;;;;;;4993738;28;20129;-88
2023/03/27 10:50:29;;;;;;;11.37;3.60;;;4.70;99.90;;;;;;4994033;28;20140;-90
2023/03/27 10:53:36;;;;;;;12.30;2.97;;;4.70;99.90;;;;;;4994567;28;20176;-87
2023/03/27 10:56:17;;;;;;;7.00;2.92;;;4.80;99.90;;;;;;4979324;28;20054;-87
2023/03/27 10:58:50;;;;;;;8.97;2.80;;;4.90;99.90;;;;;;5005976;28;20093;-89
2023/03/27 11:01:16;;;;;;;11.30;2.90;;;4.90;99.90;;;;;;5019279;28;20068;-86
2023/03/27 11:04:04;;;;;;;12.30;3.13;;;4.80;99.90;;;;;;5020266;28;20029;-88
2023/03/27 11:06:34;;;;;;;9.13;3.27;;;4.90;99.90;;;;;;5021212;28;20385;-75
2023/03/27 11:09:08;;;;;;;7.17;3.03;;;4.90;99.90;;;;;;5021082;28;20488;-88
2023/03/27 11:11:54;;;;;;;8.70;2.83;;;5.10;99.90;;;;;;5019537;28;20033;-89
2023/03/27 11:14:30;;;;;;;13.65;2.80;;;5.40;99.90;;;;;;5020988;28;20056;-90
2023/03/27 11:16:59;;;;;;;8.07;3.20;;;5.50;99.90;;;;;;5027303;28;20096;-92
2023/03/27 11:19:55;;;;;;;7.03;3.13;;;5.60;99.90;;;;;;5024263;28;20249;-90
2023/03/27 11:22:26;;;;;;;9.20;2.70;;;5.80;99.90;;;;;;5020196;28;20044;-87
2023/03/27 11:24:57;;;;;;;7.87;2.83;;;5.70;99.90;;;;;;5023848;28;20104;-89
2023/03/27 11:27:46;;;;;;;6.57;2.30;;;5.50;99.90;;;;;;5021740;28;20129;-76
2023/03/27 11:30:43;;;;;;;5.50;2.27;;;5.30;99.90;;;;;;5021281;28;20043;-78
2023/03/27 11:33:26;;;;;;;;;;;5.10;99.90;;;;;;5002918;28;20025;-79
2023/03/27 11:36:09;;;;;;;10.30;3.60;;;5.20;99.90;;;;;;5022688;28;20015;-79
2023/03/27 11:38:39;;;;;;;7.33;3.37;;;5.50;99.90;;;;;;5018916;28;20447;-79
2023/03/27 11:41:07;;;;;;;9.47;3.87;;;5.90;99.90;;;;;;5023034;28;20056;-78
2023/03/27 11:43:36;;;;;;;10.77;2.87;;;6.20;99.90;;;;;;5022485;28;20104;-78
2023/03/27 11:46:20;;;;;;;9.87;3.20;;;6.30;99.90;;;;;;5005032;28;20033;-79
2023/03/27 11:49:09;;;;;;;10.07;2.43;;;6.00;99.90;;;;;;5022089;28;20037;-79
2023/03/27 11:51:50;;;;;;;7.07;2.30;;;5.80;99.90;;;;;;5022130;28;20068;-79
2023/03/27 11:54:16;;;;;;;4.87;2.37;;;5.60;99.90;;;;;;5021602;28;20065;-78
2023/03/27 11:56:53;;;;;;;13.73;2.87;;;5.50;99.90;;;;;;5022365;28;20034;-78
2023/03/27 11:59:47;;;;;;;7.97;2.50;;;5.20;99.90;;;;;;5021860;28;20077;-78
2023/03/27 12:02:54;;;;;;;7.00;2.53;;;5.20;99.90;;;;;;5017520;28;20033;-78
2023/03/27 12:05:51;;;;;;;7.10;2.60;;;5.10;99.90;;;;;;5018202;28;20029;-79
2023/03/27 12:08:41;;;;;;;9.73;3.17;;;5.00;99.90;;;;;;5014759;28;20358;-77
2023/03/27 12:11:09;;;;;;;6.20;2.80;;;5.00;99.90;;;;;;5016430;28;21450;-78
2023/03/27 12:13:57;;;;;;;5.50;2.30;;;5.00;99.90;;;;;;5019658;28;20456;-79
2023/03/27 12:16:34;;;;;;;6.70;2.43;;;4.90;99.90;;;;;;5016844;28;20100;-78
2023/03/27 12:19:30;;;;;;;9.20;2.87;;;5.00;99.90;;;;;;5018071;28;21172;-79
2023/03/27 12:22:20;;;;;;;6.82;2.20;;;4.80;99.90;;;;;;5020567;28;20120;-79
2023/03/27 12:24:58;;;;;;;4.83;2.17;;;4.70;99.90;;;;;;5018553;28;20041;-79
2023/03/27 12:28:04;;;;;;;5.93;2.30;;;4.60;99.90;;;;;;5018682;28;20041;-79
2023/03/27 12:30:44;;;;;;;3.75;1.67;;;4.70;99.90;;;;;;4997178;28;20170;-78
2023/03/27 12:33:29;;;;;;;5.70;2.30;;;4.70;99.90;;;;;;5017839;28;20155;-77
2023/03/27 12:35:58;;;;;;;5.83;2.07;;;5.10;99.90;;;;;;5008469;28;20104;-77
2023/03/27 12:38:30;;;;;;;5.73;2.17;;;5.60;99.90;;;;;;5008126;28;20160;-77
2023/03/27 12:41:04;;;;;;;7.50;2.97;;;5.70;99.90;;;;;;5010768;28;20037;-77
2023/03/27 12:43:38;;;;;;;7.30;2.40;;;5.70;99.90;;;;;;5011720;28;20025;-76
2023/03/27 12:46:30;;;;;;;9.80;2.40;;;5.60;99.90;;;;;;5012255;28;20168;-75
2023/03/27 12:48:59;;;;;;;7.60;2.20;;;5.50;99.90;;;;;;5009933;28;20133;-76
2023/03/27 12:51:49;;;;;;;7.73;2.00;;;5.50;99.90;;;;;;5008513;28;20037;-77
2023/03/27 12:54:25;;;;;;;3.90;1.80;;;5.40;99.90;;;;;;5001396;28;20775;-76
2023/03/27 12:57:19;;;;;;;6.40;2.03;;;5.50;99.90;;;;;;5011491;28;20099;-76
2023/03/27 12:59:47;;;;;;;4.97;1.90;;;5.50;99.90;;;;;;5002359;28;20069;-76
2023/03/27 13:02:48;;;;;;;5.00;1.90;;;5.50;99.90;;;;;;5008128;28;20037;-76
2023/03/27 13:05:27;;;;;;;4.83;2.00;;;5.40;99.90;;;;;;4997271;28;20126;-76
2023/03/27 13:08:19;;;;;;;9.23;2.57;;;5.50;99.90;;;;;;5008898;28;20989;-77
2023/03/27 13:10:57;;;;;;;4.43;1.67;;;5.50;99.90;;;;;;5013834;28;20041;-95
2023/03/27 13:13:40;;;;;;;4.30;1.70;;;5.60;99.90;;;;;;5015874;28;20444;-92
2023/03/27 13:16:37;;;;;;;3.73;1.87;;;5.60;99.90;;;;;;5018125;28;20037;-93
2023/03/27 13:19:27;;;;;;;2.50;1.20;;;5.70;99.90;;;;;;5016622;28;20033;-83
2023/03/27 13:21:59;;;;;;;15.33;5.50;;;6.20;99.90;;;;;;5010215;28;20083;-84
2023/03/27 13:24:28;;;;;;;8.33;1.90;;;6.40;99.90;;;;;;5008614;28;20033;-85